Time;durP1;ratioP1;P1;durP2;ratioP2;P2;SDS_P1;SDS_P2;PMS_P1;PMS_P2;Temp;Humidity;BMP_temperature;BMP_pressure;BME280_temperature;BME280_humidity;BME280_pressure;Samples;Min_cycle;Max_cycle;Signal;HPM_P1;HPM_P2
2023/04/24 00:02:03;;;;;;;11.10;4.53;;;;;;;10.80;55.45;97256.13;10318946;28;20040;-52
2023/04/24 00:07:02;;;;;;;6.82;4.68;;;;;;;11.51;54.26;97301.28;10319598;28;20471;-53
2023/04/24 00:12:04;;;;;;;8.60;4.70;;;;;;;11.90;52.84;97292.13;10318544;28;20148;-52
2023/04/24 00:17:03;;;;;;;10.25;4.50;;;;;;;12.08;51.39;97286.63;10318693;28;20734;-52
2023/04/24 00:22:02;;;;;;;8.85;4.82;;;;;;;11.89;50.18;97213.22;10317518;28;20132;-52
2023/04/24 00:27:02;;;;;;;9.90;4.75;;;;;;;12.13;49.90;97229.34;10318928;28;20514;-52
2023/04/24 00:32:01;;;;;;;6.45;4.63;;;;;;;12.50;49.24;97262.63;10318973;28;20121;-52
2023/04/24 00:37:00;;;;;;;;;;;;;;;12.65;48.94;97293.59;10317706;28;20148;-53
2023/04/24 00:41:59;;;;;;;7.93;5.20;;;;;;;12.77;49.28;97295.16;10319802;28;19922;-52
2023/04/24 00:46:58;;;;;;;9.38;5.63;;;;;;;12.75;49.20;97291.69;10321463;28;20076;-52
2023/04/24 00:51:59;;;;;;;8.70;5.10;;;;;;;12.74;48.69;97282.16;10321453;28;20085;-53
2023/04/24 00:56:58;;;;;;;8.80;4.97;;;;;;;12.64;48.66;97276.25;10319685;28;20585;-52
2023/04/24 01:01:57;;;;;;;;;;;;;;;12.64;48.70;97276.25;10321456;28;20499;-52
2023/04/24 01:06:57;;;;;;;9.27;4.90;;;;;;;12.56;48.58;97270.34;10319897;28;19952;-52
2023/04/24 01:11:56;;;;;;;7.88;4.30;;;;;;;12.42;48.67;97251.50;10321396;28;20065;-52
2023/04/24 01:16:55;;;;;;;7.85;4.75;;;;;;;12.55;48.95;97272.94;10321724;28;20073;-52
2023/04/24 01:21:57;;;;;;;;;;;;;;;12.35;48.84;97266.34;10326339;28;20120;-52
2023/04/24 01:26:56;;;;;;;7.38;4.95;;;;;;;12.45;48.34;97270.50;10330866;28;19955;-52
2023/04/24 01:31:55;;;;;;;11.00;4.85;;;;;;;12.43;48.67;97261.00;10328991;28;20076;-53
2023/04/24 01:36:55;;;;;;;;;;;;;;;12.40;48.44;97268.88;10328678;28;20087;-51
2023/04/24 01:41:55;;;;;;;;;;;;;;;12.38;48.32;97261.06;10325817;28;19948;-53
2023/04/24 01:46:55;;;;;;;6.77;4.70;;;;;;;12.36;48.24;97255.03;10323146;28;20008;-54
2023/04/24 01:51:54;;;;;;;9.10;4.90;;;;;;;12.29;48.73;97253.41;10324319;28;20366;-53
2023/04/24 01:56:53;;;;;;;8.88;4.75;;;;;;;12.28;48.32;97252.56;10323114;28;20335;-53
2023/04/24 02:01:52;;;;;;;8.18;4.97;;;;;;;12.18;49.05;97240.56;10323443;28;20056;-51
2023/04/24 02:06:51;;;;;;;9.93;5.53;;;;;;;12.22;48.50;97257.81;10324519;28;20037;-52
2023/04/24 02:11:50;;;;;;;8.82;5.55;;;;;;;12.26;48.39;97261.25;10324765;28;20033;-52
2023/04/24 02:16:49;;;;;;;8.75;5.07;;;;;;;12.11;48.62;97254.53;10324338;28;20108;-52
2023/04/24 02:21:48;;;;;;;8.80;5.05;;;;;;;12.04;49.23;97255.50;10322507;28;20161;-52
2023/04/24 02:26:47;;;;;;;8.95;5.18;;;;;;;12.06;49.43;97256.31;10322847;28;20038;-52
2023/04/24 02:31:45;;;;;;;;;;;;;;;12.01;49.06;97252.94;10323009;28;20140;-51
2023/04/24 02:36:44;;;;;;;7.47;5.03;;;;;;;11.97;49.31;97243.47;10323691;28;19948;-52
2023/04/24 02:41:43;;;;;;;7.78;5.15;;;;;;;11.88;49.53;97253.13;10323287;28;20067;-53
2023/04/24 02:46:43;;;;;;;13.02;4.90;;;;;;;11.82;49.79;97253.19;10320829;28;20053;-53
2023/04/24 02:51:42;;;;;;;8.73;5.22;;;;;;;11.91;50.32;97248.78;10322150;28;20140;-52
2023/04/24 02:56:41;;;;;;;8.07;4.97;;;;;;;11.91;49.48;97251.38;10321362;28;20068;-52
2023/04/24 03:01:39;;;;;;;10.38;5.25;;;;;;;11.87;50.01;97251.41;10319173;28;20068;-53
2023/04/24 03:06:38;;;;;;;12.25;5.40;;;;;;;11.87;50.22;97254.00;10323496;28;20068;-51
2023/04/24 03:11:37;;;;;;;8.50;4.85;;;;;;;11.87;49.82;97246.19;10320968;28;20136;-52
2023/04/24 03:16:36;;;;;;;8.93;5.10;;;;;;;11.59;50.03;97208.47;10320406;28;20123;-52
2023/04/24 03:21:40;;;;;;;;;;;;;;;11.90;50.43;97255.72;10321150;28;20061;-52
2023/04/24 03:26:39;;;;;;;9.55;5.15;;;;;;;11.93;49.43;97252.22;10320705;28;19987;-52
2023/04/24 03:31:38;;;;;;;8.85;5.78;;;;;;;11.93;49.57;97268.66;10320506;28;20114;-52
2023/04/24 03:36:36;;;;;;;8.00;4.95;;;;;;;11.98;49.41;97272.06;10320956;28;20160;-52
2023/04/24 03:41:35;;;;;;;8.50;4.72;;;;;;;12.09;49.12;97290.13;10320531;28;20072;-52
2023/04/24 03:46:35;;;;;;;13.05;7.68;;;;;;;12.15;50.47;97295.22;10318238;28;20128;-52
2023/04/24 03:51:33;;;;;;;;;;;;;;;12.02;51.99;97294.53;10320676;28;20120;-52
2023/04/24 03:56:32;;;;;;;13.00;7.70;;;;;;;11.95;52.26;97294.66;10319884;28;19923;-53
2023/04/24 04:01:31;;;;;;;13.43;8.88;;;;;;;11.86;52.44;97308.63;10319239;28;20135;-52
2023/04/24 04:06:33;;;;;;;14.27;9.27;;;;;;;11.88;52.96;97315.53;10319224;28;20051;-52
2023/04/24 04:11:32;;;;;;;15.15;9.40;;;;;;;11.96;53.36;97307.63;10319404;28;20065;-52
2023/04/24 04:16:31;;;;;;;14.70;9.60;;;;;;;11.98;53.10;97299.81;10319544;28;20083;-53
2023/04/24 04:21:31;;;;;;;15.10;9.57;;;;;;;12.06;53.78;97297.94;10316180;28;20060;-53
2023/04/24 04:26:32;;;;;;;12.90;9.05;;;;;;;12.17;53.20;97322.06;10318704;28;20196;-52
2023/04/24 04:31:31;;;;;;;16.85;10.77;;;;;;;12.33;53.08;97321.88;10319301;28;20072;-53
2023/04/24 04:36:31;;;;;;;15.23;9.50;;;;;;;12.19;53.25;97319.44;10314160;28;20037;-53
2023/04/24 04:41:30;;;;;;;13.48;9.57;;;;;;;11.98;54.32;97326.66;10318403;28;20056;-52
2023/04/24 04:46:32;;;;;;;;;;;;;;;12.09;55.04;97329.13;10317319;28;20880;-52
2023/04/24 04:51:31;;;;;;;15.82;10.32;;;;;;;12.25;54.99;97329.75;10317314;28;20008;-51
2023/04/24 04:56:30;;;;;;;18.60;10.07;;;;;;;12.49;54.91;97331.19;10320650;28;20107;-53
2023/04/24 05:01:29;;;;;;;13.27;10.00;;;;;;;12.83;54.33;97328.00;10326799;28;20128;-52
2023/04/24 05:06:28;;;;;;;;;;;;;;;13.16;53.77;97323.97;10325556;28;20496;-53
2023/04/24 05:11:27;;;;;;;12.40;7.90;;;;;;;13.20;51.87;97319.56;10326019;28;20468;-53
2023/04/24 05:16:25;;;;;;;;;;;;;;;13.39;51.87;97327.88;10327557;28;20590;-52
2023/04/24 05:21:25;;;;;;;12.75;8.35;;;;;;;13.20;52.17;97322.16;10237043;28;19939;-53
2023/04/24 05:26:24;;;;;;;17.65;8.50;;;;;;;13.28;52.44;97328.97;10347692;28;20603;-53
2023/04/24 05:31:22;;;;;;;;;;;;;;;13.49;52.49;97329.41;10367703;28;20500;-53
2023/04/24 05:36:21;;;;;;;14.23;7.93;;;;;;;13.95;51.53;97331.13;10366072;28;20405;-53
2023/04/24 05:41:21;;;;;;;16.42;8.15;;;;;;;14.24;50.51;97325.28;10367691;28;20027;-53
2023/04/24 05:46:20;;;;;;;20.67;9.32;;;;;;;14.50;51.15;97318.59;10369347;28;20064;-53
2023/04/24 05:51:19;;;;;;;10.07;8.27;;;;;;;14.74;49.59;97325.03;10367068;28;20091;-53
2023/04/24 05:56:18;;;;;;;;;;;;;;;14.69;51.15;97316.41;10366843;28;20206;-53
2023/04/24 06:01:18;;;;;;;18.23;9.40;;;;;;;14.58;51.04;97306.22;10367217;28;19966;-52
2023/04/24 06:06:17;;;;;;;18.00;9.98;;;;;;;14.70;50.46;97316.38;10361439;28;20120;-52
2023/04/24 06:11:16;;;;;;;12.27;7.43;;;;;;;14.60;49.45;97305.28;10366744;28;20087;-51
2023/04/24 06:16:15;;;;;;;16.25;8.35;;;;;;;14.56;50.47;97281.91;10366451;28;20067;-54
2023/04/24 06:21:16;;;;;;;12.93;8.15;;;;;;;14.77;49.10;97302.28;10364044;28;20064;-53
2023/04/24 06:26:15;;;;;;;14.80;8.05;;;;;;;14.68;48.55;97267.69;10366370;28;20054;-53
2023/04/24 06:31:14;;;;;;;11.00;7.63;;;;;;;14.77;48.43;97304.91;10366800;28;20075;-53
2023/04/24 06:36:13;;;;;;;;;;;;;;;14.65;49.14;97297.34;10366188;28;20124;-53
2023/04/24 06:41:12;;;;;;;12.10;9.13;;;;;;;14.61;48.81;97306.97;10363729;28;19912;-53
2023/04/24 06:46:11;;;;;;;13.57;8.50;;;;;;;14.64;48.92;97306.09;10292174;28;1893430;-52
2023/04/24 06:51:10;;;;;;;10.07;8.10;;;;;;;14.45;48.13;97278.69;10358453;28;20481;-53
2023/04/24 06:56:09;;;;;;;;;;;;;;;14.77;48.08;97309.28;10357752;28;20418;-53
2023/04/24 07:01:08;;;;;;;13.93;7.90;;;;;;;15.06;48.06;97318.13;10359379;28;19917;-53
2023/04/24 07:06:07;;;;;;;;;;;;;;;15.49;48.13;97310.00;10353367;28;20473;-53
2023/04/24 07:11:06;;;;;;;20.15;9.40;;;;;;;16.00;47.90;97312.03;10357007;28;20369;-53
2023/04/24 07:16:05;;;;;;;;;;;;;;;16.31;46.99;97305.88;10355823;28;20013;-53
2023/04/24 07:21:04;;;;;;;17.20;9.17;;;;;;;16.39;46.15;97272.44;10349810;28;19943;-53
2023/04/24 07:26:03;;;;;;;22.77;12.05;;;;;;;16.64;46.39;97295.22;10351901;28;20127;-53
2023/04/24 07:31:02;;;;;;;14.32;9.65;;;;;;;17.12;46.85;97304.97;10355068;28;20570;-54
2023/04/24 07:36:01;;;;;;;13.55;8.23;;;;;;;17.38;44.01;97293.59;10360257;28;20058;-54
2023/04/24 07:41:00;;;;;;;14.60;8.10;;;;;;;17.45;44.19;97291.59;10357598;28;20125;-53
2023/04/24 07:45:59;;;;;;;11.20;6.60;;;;;;;17.71;41.80;97291.50;10360318;28;20017;-54
2023/04/24 07:50:58;;;;;;;12.13;7.55;;;;;;;17.67;41.75;97291.69;10361637;28;20077;-54
2023/04/24 07:55:58;;;;;;;8.43;6.03;;;;;;;17.85;41.72;97293.66;10360774;28;20033;-53
2023/04/24 08:00:57;;;;;;;11.82;7.90;;;;;;;17.75;42.99;97294.88;10360158;28;20119;-53
2023/04/24 08:05:56;;;;;;;13.85;7.57;;;;;;;17.42;43.77;97299.56;10360809;28;20032;-53
2023/04/24 08:10:55;;;;;;;12.73;7.45;;;;;;;17.43;44.88;97293.44;10349085;28;20501;-55
2023/04/24 08:15:55;;;;;;;9.10;7.32;;;;;;;17.17;44.75;97297.84;10357467;28;20108;-53
2023/04/24 08:20:54;;;;;;;15.25;8.15;;;;;;;17.13;44.49;97296.22;10356032;28;20132;-53
2023/04/24 08:25:54;;;;;;;10.70;7.88;;;;;;;17.13;45.10;97293.59;10360522;28;20064;-53
2023/04/24 08:30:54;;;;;;;12.80;7.00;;;;;;;16.95;45.00;97223.47;10360375;28;20064;-53
2023/04/24 08:35:53;;;;;;;11.02;7.72;;;;;;;17.58;43.42;97289.41;10361254;28;20068;-53
2023/04/24 08:40:52;;;;;;;12.50;8.80;;;;;;;17.91;42.22;97247.94;10356635;28;20045;-55
2023/04/24 08:45:52;;;;;;;10.18;7.20;;;;;;;18.63;41.52;97271.34;10355126;28;20120;-54
2023/04/24 08:50:51;;;;;;;11.27;6.57;;;;;;;18.91;41.58;97257.94;10363092;28;20075;-54
2023/04/24 08:55:52;;;;;;;10.98;6.90;;;;;;;19.11;41.91;97248.31;10359018;28;20032;-54
2023/04/24 09:00:51;;;;;;;9.48;5.90;;;;;;;19.26;41.14;97237.13;10359778;28;20456;-54
2023/04/24 09:05:52;;;;;;;11.32;6.00;;;;;;;19.20;41.24;97196.16;10358178;28;20136;-54
2023/04/24 09:10:51;;;;;;;8.90;6.38;;;;;;;19.42;41.00;97221.53;10359025;28;20064;-55
2023/04/24 09:15:50;;;;;;;9.25;5.97;;;;;;;19.45;41.76;97208.22;10358944;28;20512;-54
2023/04/24 09:21:04;;;;;;;8.25;5.63;;;;;;;19.68;39.85;97196.69;10359390;28;20151;-55
2023/04/24 09:26:07;;;;;;;7.97;5.65;;;;;;;19.80;39.24;97193.47;10361853;28;20682;-55
2023/04/24 09:31:14;;;;;;;8.02;5.85;;;;;;;19.77;39.94;97164.66;10356823;28;20132;-54
2023/04/24 09:36:17;;;;;;;8.73;5.60;;;;;;;19.82;39.49;97151.28;10353630;28;20176;-55
2023/04/24 09:41:16;;;;;;;9.10;6.60;;;;;;;19.99;39.34;97138.13;10359461;28;20123;-55
2023/04/24 09:46:18;;;;;;;10.13;6.93;;;;;;;20.16;39.14;97139.09;10363604;28;20132;-55
2023/04/24 09:51:32;;;;;;;10.73;6.68;;;;;;;20.20;39.29;97141.50;10364140;28;20498;-55
2023/04/24 09:56:34;;;;;;;11.73;6.47;;;;;;;20.26;39.08;97135.09;10365305;28;20457;-55
2023/04/24 10:01:33;;;;;;;7.00;6.13;;;;;;;20.27;37.61;97108.66;10364003;28;20499;-55
2023/04/24 10:06:36;;;;;;;8.30;5.43;;;;;;;20.52;36.83;97140.84;10367066;28;20072;-55
2023/04/24 10:11:35;;;;;;;8.00;5.57;;;;;;;21.05;36.07;97130.13;10365279;28;20509;-55
2023/04/24 10:16:34;;;;;;;7.25;5.10;;;;;;;21.11;35.03;97121.91;10367949;28;20068;-55
2023/04/24 10:21:35;;;;;;;8.15;5.00;;;;;;;21.28;34.60;97126.28;10365073;28;20124;-55
2023/04/24 10:26:35;;;;;;;7.13;5.60;;;;;;;21.20;34.23;97117.09;10365954;28;20128;-54
2023/04/24 10:31:34;;;;;;;7.53;5.30;;;;;;;21.46;34.42;97116.53;10362111;28;20069;-55
2023/04/24 10:36:35;;;;;;;7.55;5.47;;;;;;;21.92;33.52;97119.25;10356741;28;20071;-55
2023/04/24 10:41:37;;;;;;;10.77;5.57;;;;;;;22.28;33.21;97112.81;10362075;28;20061;-55
2023/04/24 10:46:37;;;;;;;8.73;5.53;;;;;;;22.37;32.69;97116.69;10364124;28;20160;-55
2023/04/24 10:51:50;;;;;;;9.60;5.60;;;;;;;22.63;33.70;97101.09;10366111;28;20073;-55
2023/04/24 10:56:51;;;;;;;8.35;5.10;;;;;;;22.76;32.02;97097.66;10364997;28;20052;-55
2023/04/24 11:01:57;;;;;;;8.93;4.90;;;;;;;22.55;33.10;97096.22;10361797;28;20541;-55
2023/04/24 11:06:57;;;;;;;9.48;5.90;;;;;;;22.60;32.38;97083.63;10363234;28;20127;-55
2023/04/24 11:12:14;;;;;;;8.07;5.10;;;;;;;22.73;31.50;97081.06;10364704;28;20076;-55
2023/04/24 11:17:31;;;;;;;7.32;5.57;;;;;;;23.02;32.27;97050.19;10364759;28;20068;-55
2023/04/24 11:22:34;;;;;;;5.38;4.85;;;;;;;23.33;31.11;97053.56;10365511;28;20103;-55
2023/04/24 11:27:43;;;;;;;6.68;5.00;;;;;;;23.11;31.35;97048.75;10364350;28;20524;-55
2023/04/24 11:32:42;;;;;;;8.25;5.00;;;;;;;22.95;30.09;97048.88;10358611;28;20527;-55
2023/04/24 11:37:45;;;;;;;6.82;4.60;;;;;;;22.83;30.17;97036.41;10361912;28;20076;-55
2023/04/24 11:42:49;;;;;;;7.32;5.30;;;;;;;22.75;31.10;97013.94;10360661;28;20079;-55
2023/04/24 11:47:48;;;;;;;6.40;4.65;;;;;;;22.73;29.54;96983.19;10358102;28;20123;-55
2023/04/24 11:52:48;;;;;;;6.35;4.93;;;;;;;22.80;30.22;97014.47;10361915;28;20060;-55
2023/04/24 11:57:50;;;;;;;8.77;5.18;;;;;;;23.07;30.70;96994.31;10361645;28;20052;-55
2023/04/24 12:02:51;;;;;;;6.80;4.55;;;;;;;22.95;30.47;96983.59;10361039;28;20484;-55
2023/04/24 12:07:50;;;;;;;10.52;5.40;;;;;;;22.51;29.75;96981.03;10362322;28;20558;-55
2023/04/24 12:12:51;;;;;;;6.68;4.93;;;;;;;22.53;29.79;96974.72;10360567;28;20486;-55
2023/04/24 12:17:54;;;;;;;9.00;5.07;;;;;;;22.82;29.87;96973.88;10360645;28;20124;-55
2023/04/24 12:22:55;;;;;;;7.03;5.28;;;;;;;23.37;29.73;96965.91;10360210;28;20060;-55
2023/04/24 12:28:12;;;;;;;9.05;6.07;;;;;;;23.64;29.11;96950.00;10360048;28;20068;-55
2023/04/24 12:33:11;;;;;;;7.15;5.03;;;;;;;23.26;29.27;96938.44;10360695;28;20060;-55
2023/04/24 12:38:14;;;;;;;5.40;4.45;;;;;;;22.64;30.07;96942.31;10359883;28;20032;-55
2023/04/24 12:43:15;;;;;;;12.32;6.60;;;;;;;22.10;34.84;96940.31;10357689;28;20487;-55
2023/04/24 12:48:14;;;;;;;11.20;7.38;;;;;;;21.24;36.92;96897.84;10359638;28;20157;-55
2023/04/24 12:53:14;;;;;;;9.32;7.45;;;;;;;20.57;39.02;96939.34;10358174;28;20125;-54
2023/04/24 12:58:13;;;;;;;9.93;7.85;;;;;;;20.07;41.03;96969.19;10359652;28;20076;-54
2023/04/24 13:03:13;;;;;;;9.10;7.85;;;;;;;19.26;43.87;96987.25;10359148;28;20136;-54
2023/04/24 13:08:12;;;;;;;10.68;9.20;;;;;;;18.97;46.31;97002.63;10359456;28;20060;-54
2023/04/24 13:13:12;;;;;;;10.00;8.13;;;;;;;18.47;46.27;96999.66;10359756;28;20144;-54
2023/04/24 13:18:11;;;;;;;12.50;8.60;;;;;;;17.99;48.00;96993.88;10366724;28;20108;-53
2023/04/24 13:23:10;;;;;;;11.68;8.50;;;;;;;17.48;52.01;97034.44;10365940;28;20119;-53
2023/04/24 13:28:09;;;;;;;17.52;7.43;;;;;;;17.10;51.84;97019.31;10366985;28;20120;-53
2023/04/24 13:33:08;;;;;;;10.93;7.30;;;;;;;17.17;51.21;97046.13;10366672;28;20513;-54
2023/04/24 13:38:07;;;;;;;11.68;7.00;;;;;;;17.43;50.08;97049.50;10365566;28;20429;-54
2023/04/24 13:43:05;;;;;;;11.27;8.88;;;;;;;17.89;50.84;97060.78;10366151;28;20521;-53
2023/04/24 13:48:05;;;;;;;9.40;7.32;;;;;;;18.35;50.93;97051.81;10364990;28;20064;-54
2023/04/24 13:53:03;;;;;;;14.32;8.00;;;;;;;19.02;49.25;97044.50;10367450;28;20075;-55
2023/04/24 13:58:02;;;;;;;9.90;7.22;;;;;;;19.33;47.72;97033.38;10370019;28;20017;-54
2023/04/24 14:03:01;;;;;;;8.98;7.05;;;;;;;19.70;47.02;97018.47;10368593;28;20032;-54
2023/04/24 14:08:00;;;;;;;12.38;7.95;;;;;;;19.80;46.52;97013.59;10366652;28;20025;-54
2023/04/24 14:12:59;;;;;;;9.00;6.68;;;;;;;19.93;45.46;97006.78;10366181;28;20040;-55
2023/04/24 14:17:58;;;;;;;8.40;6.30;;;;;;;19.54;45.84;96993.78;10367964;28;20076;-55
2023/04/24 14:23:02;;;;;;;8.68;7.15;;;;;;;19.36;45.79;96980.59;10367161;28;20072;-55
2023/04/24 14:28:02;;;;;;;8.82;5.90;;;;;;;19.19;44.56;96965.63;10361155;28;20558;-55
2023/04/24 14:33:01;;;;;;;5.93;5.10;;;;;;;18.95;44.18;96959.78;10365977;28;20168;-54
2023/04/24 14:38:02;;;;;;;8.00;6.15;;;;;;;18.93;44.38;96961.63;10366372;28;20458;-53
2023/04/24 14:43:02;;;;;;;8.68;6.00;;;;;;;18.74;44.13;96940.63;10362486;28;20072;-54
2023/04/24 14:48:01;;;;;;;11.98;6.70;;;;;;;18.54;46.60;96941.50;10361847;28;20151;-54
2023/04/24 14:53:01;;;;;;;6.85;4.93;;;;;;;18.13;47.96;96931.09;10362464;28;20047;-54
2023/04/24 14:58:01;;;;;;;9.75;5.80;;;;;;;17.67;49.44;96922.56;10359049;28;20112;-54
2023/04/24 15:03:00;;;;;;;6.45;5.43;;;;;;;17.42;50.48;96916.66;10362560;28;20645;-55
2023/04/24 15:07:59;;;;;;;9.48;7.07;;;;;;;17.38;52.16;96904.56;10361273;28;20475;-54
2023/04/24 15:12:58;;;;;;;8.70;6.38;;;;;;;17.33;52.56;96929.25;10360645;28;20554;-54
2023/04/24 15:17:57;;;;;;;9.05;6.60;;;;;;;17.59;52.20;96905.44;10361425;28;20387;-54
2023/04/24 15:22:58;;;;;;;8.27;6.15;;;;;;;17.69;51.42;96915.47;10359608;28;20056;-54
2023/04/24 15:27:58;;;;;;;10.55;7.05;;;;;;;17.89;52.00;96905.91;10362270;28;20180;-56
2023/04/24 15:32:57;;;;;;;8.32;6.60;;;;;;;17.98;51.31;96914.22;10362299;28;20167;-54
2023/04/24 15:37:56;;;;;;;6.93;5.30;;;;;;;17.78;50.84;96909.03;10360690;28;20035;-55
2023/04/24 15:42:55;;;;;;;10.85;8.27;;;;;;;17.11;55.10;96908.28;10361154;28;20044;-54
2023/04/24 15:47:55;;;;;;;15.13;8.02;;;;;;;17.23;54.97;96914.78;10359734;28;20088;-54
2023/04/24 15:52:54;;;;;;;10.82;8.50;;;;;;;17.36;55.67;96909.91;10361616;28;20067;-54
2023/04/24 15:57:53;;;;;;;13.35;7.55;;;;;;;16.93;57.37;96888.94;10360388;28;20132;-54
2023/04/24 16:02:52;;;;;;;13.30;9.27;;;;;;;17.03;58.57;96922.63;10359864;28;20126;-54
2023/04/24 16:07:51;;;;;;;14.23;9.93;;;;;;;17.02;59.04;96952.34;10359844;28;20051;-54
2023/04/24 16:12:53;;;;;;;14.18;10.45;;;;;;;16.88;60.47;96961.59;10360269;28;20402;-55
2023/04/24 16:17:52;;;;;;;11.55;9.20;;;;;;;16.34;67.53;96968.00;10360851;28;20143;-54
2023/04/24 16:22:51;;;;;;;13.38;11.32;;;;;;;15.82;73.43;96972.47;10359964;28;20051;-53
2023/04/24 16:27:51;;;;;;;;;;;;;;;15.33;75.36;96982.78;10359011;28;20041;-53
2023/04/24 16:32:50;;;;;;;12.32;9.85;;;;;;;14.76;77.74;96983.69;10360211;28;19944;-53
2023/04/24 16:37:49;;;;;;;;;;;;;;;13.86;80.68;97000.09;10361712;28;20035;-53
2023/04/24 16:42:49;;;;;;;13.05;9.50;;;;;;;13.66;80.58;96998.03;10362425;28;20378;-53
2023/04/24 16:47:47;;;;;;;11.73;8.98;;;;;;;13.64;80.73;97012.84;10364357;28;20068;-53
2023/04/24 16:52:46;;;;;;;;;;;;;;;13.84;82.35;97018.38;10370061;28;20043;-53
2023/04/24 16:57:45;;;;;;;18.38;14.52;;;;;;;13.22;89.52;97021.63;10371107;28;20191;-52
2023/04/24 17:02:47;;;;;;;;;;;;;;;13.10;89.83;97014.94;10371187;28;20486;-52
2023/04/24 17:07:46;;;;;;;24.08;17.88;;;;;;;12.95;92.16;97020.50;10373196;28;20008;-52
2023/04/24 17:12:45;;;;;;;;;;;;;;;12.95;93.06;97025.69;10370452;28;20028;-51
2023/04/24 17:17:44;;;;;;;22.63;19.42;;;;;;;13.10;93.85;97037.53;10370253;28;19919;-51
2023/04/24 17:22:44;;;;;;;22.92;15.10;;;;;;;13.03;94.64;97029.00;10370871;28;20076;-52
2023/04/24 17:27:43;;;;;;;;;;;;;;;13.13;95.20;97060.91;10369386;28;20057;-50
2023/04/24 17:32:42;;;;;;;18.83;13.93;;;;;;;13.05;95.95;97063.69;10370138;28;20410;-51
2023/04/24 17:37:42;;;;;;;13.75;11.07;;;;;;;12.98;95.75;97067.31;10368877;28;20064;-50
2023/04/24 17:42:41;;;;;;;13.57;10.85;;;;;;;12.89;95.74;97072.72;10366703;28;20088;-52
2023/04/24 17:47:40;;;;;;;;;;;;;;;12.85;96.57;97086.69;10366766;28;20629;-51
2023/04/24 17:52:39;;;;;;;15.88;11.00;;;;;;;12.49;96.99;97019.75;10365812;28;19944;-52
2023/04/24 17:57:38;;;;;;;16.38;12.32;;;;;;;12.76;97.01;97094.69;10364863;28;20036;-51
2023/04/24 18:02:37;;;;;;;;;;;;;;;12.66;97.41;97101.81;10365969;28;20072;-51
2023/04/24 18:07:38;;;;;;;19.35;15.68;;;;;;;12.43;98.29;97090.09;10365438;28;19943;-49
2023/04/24 18:12:36;;;;;;;17.90;13.85;;;;;;;12.35;99.24;97088.56;10364414;28;20123;-49
2023/04/24 18:17:35;;;;;;;;;;;;;;;12.27;99.36;97089.56;10363640;28;20032;-51
2023/04/24 18:22:34;;;;;;;19.08;14.02;;;;;;;12.32;99.85;97089.44;10366449;28;19969;-51
2023/04/24 18:27:34;;;;;;;21.95;15.07;;;;;;;12.30;100.00;97079.09;10363997;28;20125;-51
2023/04/24 18:32:34;;;;;;;18.02;13.20;;;;;;;11.99;100.00;97051.88;10364189;28;20060;-52
2023/04/24 18:37:33;;;;;;;21.15;15.35;;;;;;;12.13;100.00;97067.25;10364834;28;20068;-52
2023/04/24 18:42:31;;;;;;;;;;;;;;;12.17;100.00;97074.97;10364500;28;20044;-51
2023/04/24 18:47:30;;;;;;;21.55;15.77;;;;;;;12.14;99.58;97084.56;10363973;28;20003;-49
2023/04/24 18:52:29;;;;;;;;;;;;;;;12.15;99.84;97073.28;10361033;28;20120;-49
2023/04/24 18:57:28;;;;;;;28.70;21.75;;;;;;;12.14;100.00;97081.97;10362527;28;19920;-51
2023/04/24 19:02:27;;;;;;;33.42;24.77;;;;;;;12.12;100.00;97082.00;10360948;28;20128;-49
2023/04/24 19:07:28;;;;;;;31.20;23.05;;;;;;;12.13;100.00;97077.63;10362371;28;20510;-51
2023/04/24 19:12:27;;;;;;;30.38;22.90;;;;;;;12.17;100.00;97076.72;10361758;28;20495;-51
2023/04/24 19:17:26;;;;;;;;;;;;;;;12.27;100.00;97073.97;10362877;28;20056;-51
2023/04/24 19:22:25;;;;;;;33.63;25.60;;;;;;;12.31;100.00;97072.13;10362980;28;19923;-49
2023/04/24 19:27:24;;;;;;;40.95;30.50;;;;;;;12.32;100.00;97072.97;10361894;28;20569;-49
2023/04/24 19:32:22;;;;;;;40.45;28.05;;;;;;;12.36;100.00;97072.91;10362239;28;20084;-50
2023/04/24 19:37:21;;;;;;;29.88;23.45;;;;;;;12.46;100.00;97077.06;10361580;28;20463;-50
2023/04/24 19:42:20;;;;;;;27.48;20.63;;;;;;;12.35;100.00;97071.19;10361598;28;20059;-51
2023/04/24 19:47:19;;;;;;;28.85;22.88;;;;;;;12.23;100.00;97051.44;10361156;28;20048;-49
2023/04/24 19:52:18;;;;;;;29.95;24.63;;;;;;;12.23;100.00;97077.47;10359203;28;20127;-51
2023/04/24 19:57:17;;;;;;;47.15;35.00;;;;;;;12.20;100.00;97072.28;10359543;28;20485;-49
2023/04/24 20:02:16;;;;;;;;;;;;;;;12.25;100.00;97074.81;10359721;28;20495;-50
2023/04/24 20:07:15;;;;;;;45.13;31.38;;;;;;;12.34;100.00;97079.88;10359667;28;20359;-51
2023/04/24 20:12:14;;;;;;;;;;;;;;;12.32;100.00;97086.84;10359068;28;20206;-51
2023/04/24 20:17:14;;;;;;;34.10;25.33;;;;;;;12.41;100.00;97091.03;10360426;28;20016;-51
2023/04/24 20:22:14;;;;;;;40.17;28.33;;;;;;;11.98;100.00;97035.44;10360705;28;20044;-50
2023/04/24 20:27:13;;;;;;;41.88;28.33;;;;;;;12.05;100.00;97037.03;10360588;28;20553;-49
2023/04/24 20:32:12;;;;;;;38.50;26.77;;;;;;;12.27;100.00;97073.03;10358219;28;20068;-49
2023/04/24 20:37:11;;;;;;;;;;;;;;;12.33;100.00;97057.34;10361976;28;20068;-49
2023/04/24 20:42:10;;;;;;;49.83;36.38;;;;;;;12.32;100.00;97039.16;10360229;28;19921;-49
2023/04/24 20:47:09;;;;;;;50.83;37.38;;;;;;;12.35;100.00;97033.94;10359172;28;20508;-50
2023/04/24 20:52:08;;;;;;;37.97;27.88;;;;;;;12.41;100.00;97021.63;10358514;28;20514;-50
2023/04/24 20:57:08;;;;;;;28.63;21.00;;;;;;;12.29;100.00;97009.72;10360355;28;20036;-51
2023/04/24 21:02:06;;;;;;;27.13;18.75;;;;;;;12.22;100.00;96997.69;10361040;28;20128;-50
2023/04/24 21:07:05;;;;;;;;;;;;;;;12.16;100.00;96986.53;10358873;28;20116;-49
2023/04/24 21:12:05;;;;;;;25.52;18.50;;;;;;;12.11;100.00;96971.06;10360344;28;19912;-52
2023/04/24 21:17:04;;;;;;;21.10;16.33;;;;;;;12.29;100.00;96970.69;10359370;28;20064;-48
2023/04/24 21:22:03;;;;;;;17.30;12.80;;;;;;;12.22;100.00;96950.03;10359513;28;20131;-51
2023/04/24 21:27:02;;;;;;;;;;;;;;;12.34;100.00;96941.13;10360115;28;20040;-51
2023/04/24 21:32:01;;;;;;;15.30;11.60;;;;;;;12.24;100.00;96930.03;10356119;28;19920;-51
2023/04/24 21:37:00;;;;;;;13.43;10.25;;;;;;;12.34;100.00;96944.59;10363102;28;20455;-51
2023/04/24 21:41:59;;;;;;;;;;;;;;;12.03;100.00;96952.13;10364730;28;20482;-49
2023/04/24 21:46:58;;;;;;;8.70;6.53;;;;;;;11.98;100.00;96961.78;10368488;28;19959;-51
2023/04/24 21:51:57;;;;;;;;;;;;;;;12.04;100.00;96964.22;10369381;28;20052;-49
2023/04/24 21:56:56;;;;;;;12.70;8.13;;;;;;;12.16;100.00;96971.81;10370219;28;19905;-51
2023/04/24 22:01:55;;;;;;;;;;;;;;;12.13;100.00;96966.66;10370128;28;20033;-49
2023/04/24 22:06:54;;;;;;;14.48;10.93;;;;;;;12.18;100.00;96956.16;10369001;28;20277;-50
2023/04/24 22:11:52;;;;;;;19.60;12.32;;;;;;;12.20;100.00;96946.59;10365654;28;20025;-50
2023/04/24 22:16:51;;;;;;;18.00;12.82;;;;;;;12.08;100.00;96943.34;10365801;28;20029;-51
2023/04/24 22:21:51;;;;;;;17.33;12.88;;;;;;;12.19;100.00;96944.88;10364447;28;20033;-49
2023/04/24 22:26:49;;;;;;;;;;;;;;;12.16;100.00;96930.22;10365791;28;20124;-51
2023/04/24 22:31:49;;;;;;;17.15;13.00;;;;;;;12.25;100.00;96909.22;10365000;28;19919;-49
2023/04/24 22:36:48;;;;;;;19.50;13.07;;;;;;;12.24;100.00;96904.88;10368487;28;20061;-49
2023/04/24 22:41:47;;;;;;;;;;;;;;;12.28;100.00;96901.38;10366781;28;20029;-51
2023/04/24 22:46:46;;;;;;;22.17;14.30;;;;;;;12.32;100.00;96896.94;10364403;28;19924;-50
2023/04/24 22:51:46;;;;;;;17.73;13.20;;;;;;;12.15;100.00;96886.88;10363879;28;20061;-51
2023/04/24 22:56:45;;;;;;;14.90;12.15;;;;;;;12.06;100.00;96893.13;10363827;28;20075;-49
2023/04/24 23:01:44;;;;;;;;;;;;;;;12.04;100.00;96881.03;10365179;28;20072;-49
2023/04/24 23:06:43;;;;;;;15.07;9.85;;;;;;;11.74;100.00;96880.78;10362993;28;19963;-50
2023/04/24 23:11:42;;;;;;;14.20;9.88;;;;;;;11.61;100.00;96872.34;10362848;28;20033;-50
2023/04/24 23:16:41;;;;;;;;;;;;;;;11.75;100.00;96872.09;10364267;28;20115;-51